sensor_id;sensor_type;location;lat;lon;timestamp;temperature;humidity
52543;DHT22;38449;52.696;6.186;2023-07-08T00:00:53;19.30;99.90
52543;DHT22;38449;52.696;6.186;2023-07-08T00:03:20;19.30;99.90
52543;DHT22;38449;52.696;6.186;2023-07-08T00:05:47;19.20;99.90
52543;DHT22;38449;52.696;6.186;2023-07-08T00:08:15;19.20;99.90
52543;DHT22;38449;52.696;6.186;2023-07-08T00:10:41;19.10;99.90
52543;DHT22;38449;52.696;6.186;2023-07-08T00:13:08;19.10;99.90
52543;DHT22;38449;52.696;6.186;2023-07-08T00:15:36;19.10;99.90
52543;DHT22;38449;52.696;6.186;2023-07-08T00:18:14;19.10;99.90
52543;DHT22;38449;52.696;6.186;2023-07-08T00:20:50;19.10;99.90
52543;DHT22;38449;52.696;6.186;2023-07-08T00:23:17;19.00;99.90
52543;DHT22;38449;52.696;6.186;2023-07-08T00:25:47;19.00;99.90
52543;DHT22;38449;52.696;6.186;2023-07-08T00:28:17;19.00;99.90
52543;DHT22;38449;52.696;6.186;2023-07-08T00:30:44;19.00;99.90
52543;DHT22;38449;52.696;6.186;2023-07-08T00:33:11;19.00;99.90
52543;DHT22;38449;52.696;6.186;2023-07-08T00:35:45;19.00;99.90
52543;DHT22;38449;52.696;6.186;2023-07-08T00:38:22;19.00;99.90
52543;DHT22;38449;52.696;6.186;2023-07-08T00:51:34;18.80;99.90
52543;DHT22;38449;52.696;6.186;2023-07-08T00:54:01;18.80;99.90
52543;DHT22;38449;52.696;6.186;2023-07-08T00:56:32;18.70;99.90
52543;DHT22;38449;52.696;6.186;2023-07-08T00:59:04;18.70;99.90
52543;DHT22;38449;52.696;6.186;2023-07-08T01:01:32;18.70;99.90
52543;DHT22;38449;52.696;6.186;2023-07-08T01:04:08;18.60;99.90
52543;DHT22;38449;52.696;6.186;2023-07-08T01:06:39;18.60;99.90
52543;DHT22;38449;52.696;6.186;2023-07-08T01:09:08;18.60;99.90
52543;DHT22;38449;52.696;6.186;2023-07-08T01:11:37;18.60;99.90
52543;DHT22;38449;52.696;6.186;2023-07-08T01:14:09;18.50;99.90
52543;DHT22;38449;52.696;6.186;2023-07-08T01:16:37;18.50;99.90
52543;DHT22;38449;52.696;6.186;2023-07-08T01:19:04;18.50;99.90
52543;DHT22;38449;52.696;6.186;2023-07-08T01:21:36;18.40;99.90
52543;DHT22;38449;52.696;6.186;2023-07-08T01:24:06;18.40;99.90
52543;DHT22;38449;52.696;6.186;2023-07-08T01:26:35;18.40;99.90
52543;DHT22;38449;52.696;6.186;2023-07-08T01:29:03;18.30;99.90
52543;DHT22;38449;52.696;6.186;2023-07-08T01:31:29;18.30;99.90
52543;DHT22;38449;52.696;6.186;2023-07-08T01:33:56;18.30;99.90
52543;DHT22;38449;52.696;6.186;2023-07-08T01:36:22;18.20;99.90
52543;DHT22;38449;52.696;6.186;2023-07-08T01:38:49;18.20;99.90
52543;DHT22;38449;52.696;6.186;2023-07-08T01:41:16;18.20;99.90
52543;DHT22;38449;52.696;6.186;2023-07-08T01:43:43;18.10;99.90
52543;DHT22;38449;52.696;6.186;2023-07-08T01:46:18;18.20;99.90
52543;DHT22;38449;52.696;6.186;2023-07-08T01:48:50;18.10;99.90
52543;DHT22;38449;52.696;6.186;2023-07-08T01:51:17;18.10;99.90
52543;DHT22;38449;52.696;6.186;2023-07-08T01:53:44;18.10;99.90
52543;DHT22;38449;52.696;6.186;2023-07-08T01:56:12;18.10;99.90
52543;DHT22;38449;52.696;6.186;2023-07-08T01:58:38;18.00;99.90
52543;DHT22;38449;52.696;6.186;2023-07-08T02:01:05;18.00;99.90
52543;DHT22;38449;52.696;6.186;2023-07-08T02:03:32;17.90;99.90
52543;DHT22;38449;52.696;6.186;2023-07-08T02:05:59;17.90;99.90
52543;DHT22;38449;52.696;6.186;2023-07-08T02:08:26;17.80;99.90
52543;DHT22;38449;52.696;6.186;2023-07-08T02:10:55;17.80;99.90
52543;DHT22;38449;52.696;6.186;2023-07-08T02:13:22;17.80;99.90
52543;DHT22;38449;52.696;6.186;2023-07-08T02:15:49;17.70;99.90
52543;DHT22;38449;52.696;6.186;2023-07-08T02:18:16;17.70;99.90
52543;DHT22;38449;52.696;6.186;2023-07-08T02:20:45;17.70;99.90
52543;DHT22;38449;52.696;6.186;2023-07-08T02:23:13;17.60;99.90
52543;DHT22;38449;52.696;6.186;2023-07-08T02:25:39;17.60;99.90
52543;DHT22;38449;52.696;6.186;2023-07-08T02:28:05;17.50;99.90
52543;DHT22;38449;52.696;6.186;2023-07-08T02:30:32;17.50;99.90
52543;DHT22;38449;52.696;6.186;2023-07-08T02:32:58;17.50;99.90
52543;DHT22;38449;52.696;6.186;2023-07-08T02:35:26;17.50;99.90
52543;DHT22;38449;52.696;6.186;2023-07-08T02:37:54;17.40;99.90
52543;DHT22;38449;52.696;6.186;2023-07-08T02:40:21;17.30;99.90
52543;DHT22;38449;52.696;6.186;2023-07-08T02:42:48;17.20;99.90
52543;DHT22;38449;52.696;6.186;2023-07-08T02:45:16;17.20;99.90
52543;DHT22;38449;52.696;6.186;2023-07-08T02:47:43;17.20;99.90
52543;DHT22;38449;52.696;6.186;2023-07-08T02:50:10;17.10;99.90
52543;DHT22;38449;52.696;6.186;2023-07-08T02:52:37;17.10;99.90
52543;DHT22;38449;52.696;6.186;2023-07-08T02:55:04;17.10;99.90
52543;DHT22;38449;52.696;6.186;2023-07-08T02:57:31;17.00;99.90
52543;DHT22;38449;52.696;6.186;2023-07-08T02:59:57;17.00;99.90
52543;DHT22;38449;52.696;6.186;2023-07-08T03:02:23;17.00;99.90
52543;DHT22;38449;52.696;6.186;2023-07-08T03:04:50;16.90;99.90
52543;DHT22;38449;52.696;6.186;2023-07-08T03:07:17;16.90;99.90
52543;DHT22;38449;52.696;6.186;2023-07-08T03:09:43;16.90;99.90
52543;DHT22;38449;52.696;6.186;2023-07-08T03:12:11;16.80;99.90
52543;DHT22;38449;52.696;6.186;2023-07-08T03:14:37;16.80;99.90
52543;DHT22;38449;52.696;6.186;2023-07-08T03:17:04;16.80;99.90
52543;DHT22;38449;52.696;6.186;2023-07-08T03:19:31;16.80;99.90
52543;DHT22;38449;52.696;6.186;2023-07-08T03:21:58;16.70;99.90
52543;DHT22;38449;52.696;6.186;2023-07-08T03:24:25;16.80;99.90
52543;DHT22;38449;52.696;6.186;2023-07-08T03:26:51;16.70;99.90
52543;DHT22;38449;52.696;6.186;2023-07-08T03:29:20;16.80;99.90
52543;DHT22;38449;52.696;6.186;2023-07-08T03:31:47;16.80;99.90
52543;DHT22;38449;52.696;6.186;2023-07-08T03:34:15;16.70;99.90
52543;DHT22;38449;52.696;6.186;2023-07-08T03:36:47;16.70;99.90
52543;DHT22;38449;52.696;6.186;2023-07-08T03:39:18;16.70;99.90
52543;DHT22;38449;52.696;6.186;2023-07-08T03:41:45;16.70;99.90
52543;DHT22;38449;52.696;6.186;2023-07-08T03:44:11;16.80;99.90
52543;DHT22;38449;52.696;6.186;2023-07-08T03:46:38;16.70;99.90
52543;DHT22;38449;52.696;6.186;2023-07-08T03:49:06;16.70;99.90
52543;DHT22;38449;52.696;6.186;2023-07-08T03:51:35;16.60;99.90
52543;DHT22;38449;52.696;6.186;2023-07-08T03:54:03;16.70;99.90
52543;DHT22;38449;52.696;6.186;2023-07-08T03:56:30;16.70;99.90
52543;DHT22;38449;52.696;6.186;2023-07-08T03:58:56;16.60;99.90
52543;DHT22;38449;52.696;6.186;2023-07-08T04:01:24;16.70;99.90
52543;DHT22;38449;52.696;6.186;2023-07-08T04:03:55;16.70;99.90
52543;DHT22;38449;52.696;6.186;2023-07-08T04:06:22;16.70;99.90
52543;DHT22;38449;52.696;6.186;2023-07-08T04:08:49;16.80;99.90
52543;DHT22;38449;52.696;6.186;2023-07-08T04:11:19;16.80;99.90
52543;DHT22;38449;52.696;6.186;2023-07-08T04:13:46;16.90;99.90
52543;DHT22;38449;52.696;6.186;2023-07-08T04:16:25;16.90;99.90
52543;DHT22;38449;52.696;6.186;2023-07-08T04:18:54;16.90;99.90
52543;DHT22;38449;52.696;6.186;2023-07-08T04:21:23;16.90;99.90
52543;DHT22;38449;52.696;6.186;2023-07-08T04:23:51;16.90;99.90
52543;DHT22;38449;52.696;6.186;2023-07-08T04:26:17;17.00;99.90
52543;DHT22;38449;52.696;6.186;2023-07-08T04:28:45;17.00;99.90
52543;DHT22;38449;52.696;6.186;2023-07-08T04:31:11;17.00;99.90
52543;DHT22;38449;52.696;6.186;2023-07-08T04:33:37;17.10;99.90
52543;DHT22;38449;52.696;6.186;2023-07-08T04:36:05;17.10;99.90
52543;DHT22;38449;52.696;6.186;2023-07-08T04:38:35;17.20;99.90
52543;DHT22;38449;52.696;6.186;2023-07-08T04:41:02;17.20;99.90
52543;DHT22;38449;52.696;6.186;2023-07-08T04:43:28;17.20;99.90
52543;DHT22;38449;52.696;6.186;2023-07-08T04:45:56;17.30;99.90
52543;DHT22;38449;52.696;6.186;2023-07-08T04:48:22;17.40;99.90
52543;DHT22;38449;52.696;6.186;2023-07-08T04:50:51;17.40;99.90
52543;DHT22;38449;52.696;6.186;2023-07-08T04:53:18;17.50;99.90
52543;DHT22;38449;52.696;6.186;2023-07-08T04:55:50;17.50;99.90
52543;DHT22;38449;52.696;6.186;2023-07-08T04:58:17;17.60;99.90
52543;DHT22;38449;52.696;6.186;2023-07-08T05:00:44;18.20;99.90
52543;DHT22;38449;52.696;6.186;2023-07-08T05:03:10;19.00;99.90
52543;DHT22;38449;52.696;6.186;2023-07-08T05:05:36;19.70;99.90
52543;DHT22;38449;52.696;6.186;2023-07-08T05:08:03;20.50;99.90
52543;DHT22;38449;52.696;6.186;2023-07-08T05:10:29;21.00;99.90
52543;DHT22;38449;52.696;6.186;2023-07-08T05:12:56;21.50;99.90
52543;DHT22;38449;52.696;6.186;2023-07-08T05:15:22;22.10;99.90
52543;DHT22;38449;52.696;6.186;2023-07-08T05:17:50;22.20;99.90
52543;DHT22;38449;52.696;6.186;2023-07-08T05:20:17;22.70;99.90
52543;DHT22;38449;52.696;6.186;2023-07-08T05:22:45;23.00;99.90
52543;DHT22;38449;52.696;6.186;2023-07-08T05:25:12;23.20;99.90
52543;DHT22;38449;52.696;6.186;2023-07-08T05:27:39;23.40;99.90
52543;DHT22;38449;52.696;6.186;2023-07-08T05:30:06;23.70;99.90
52543;DHT22;38449;52.696;6.186;2023-07-08T05:32:33;23.90;99.80
52543;DHT22;38449;52.696;6.186;2023-07-08T05:34:59;24.00;99.90
52543;DHT22;38449;52.696;6.186;2023-07-08T05:37:26;24.40;99.90
52543;DHT22;38449;52.696;6.186;2023-07-08T05:39:55;24.50;99.60
52543;DHT22;38449;52.696;6.186;2023-07-08T05:42:22;24.60;99.40
52543;DHT22;38449;52.696;6.186;2023-07-08T05:44:48;24.90;99.00
52543;DHT22;38449;52.696;6.186;2023-07-08T05:47:15;24.80;98.70
52543;DHT22;38449;52.696;6.186;2023-07-08T05:49:41;24.80;98.60
52543;DHT22;38449;52.696;6.186;2023-07-08T05:52:08;25.20;98.50
52543;DHT22;38449;52.696;6.186;2023-07-08T05:54:38;25.40;98.20
52543;DHT22;38449;52.696;6.186;2023-07-08T05:57:10;25.70;97.80
52543;DHT22;38449;52.696;6.186;2023-07-08T05:59:37;25.70;97.00
52543;DHT22;38449;52.696;6.186;2023-07-08T06:02:10;25.60;97.30
52543;DHT22;38449;52.696;6.186;2023-07-08T06:04:37;25.70;97.30
52543;DHT22;38449;52.696;6.186;2023-07-08T06:07:03;25.80;97.30
52543;DHT22;38449;52.696;6.186;2023-07-08T06:09:30;26.00;96.90
52543;DHT22;38449;52.696;6.186;2023-07-08T06:11:56;25.90;96.40
52543;DHT22;38449;52.696;6.186;2023-07-08T06:14:22;26.00;96.80
52543;DHT22;38449;52.696;6.186;2023-07-08T06:16:50;26.10;96.60
52543;DHT22;38449;52.696;6.186;2023-07-08T06:19:16;26.50;96.30
52543;DHT22;38449;52.696;6.186;2023-07-08T06:21:43;26.60;96.30
52543;DHT22;38449;52.696;6.186;2023-07-08T06:24:09;26.80;95.60
52543;DHT22;38449;52.696;6.186;2023-07-08T06:26:36;26.70;95.80
52543;DHT22;38449;52.696;6.186;2023-07-08T06:29:02;26.90;95.60
52543;DHT22;38449;52.696;6.186;2023-07-08T06:31:29;27.20;95.70
52543;DHT22;38449;52.696;6.186;2023-07-08T06:33:55;27.50;95.50
52543;DHT22;38449;52.696;6.186;2023-07-08T06:36:21;27.40;95.10
52543;DHT22;38449;52.696;6.186;2023-07-08T06:38:49;27.40;95.00
52543;DHT22;38449;52.696;6.186;2023-07-08T06:41:15;27.30;95.00
52543;DHT22;38449;52.696;6.186;2023-07-08T06:43:41;27.50;94.80
52543;DHT22;38449;52.696;6.186;2023-07-08T06:46:09;27.70;94.70
52543;DHT22;38449;52.696;6.186;2023-07-08T06:48:35;27.50;94.40
52543;DHT22;38449;52.696;6.186;2023-07-08T06:51:04;27.70;94.30
52543;DHT22;38449;52.696;6.186;2023-07-08T06:53:31;27.30;94.10
52543;DHT22;38449;52.696;6.186;2023-07-08T06:55:57;27.40;94.50
52543;DHT22;38449;52.696;6.186;2023-07-08T06:58:23;27.30;94.40
52543;DHT22;38449;52.696;6.186;2023-07-08T07:00:49;27.40;94.30
52543;DHT22;38449;52.696;6.186;2023-07-08T07:03:16;27.30;94.50
52543;DHT22;38449;52.696;6.186;2023-07-08T07:05:43;27.20;94.60
52543;DHT22;38449;52.696;6.186;2023-07-08T07:08:17;26.60;94.70
52543;DHT22;38449;52.696;6.186;2023-07-08T07:10:43;26.10;95.10
52543;DHT22;38449;52.696;6.186;2023-07-08T07:13:09;25.90;95.20
52543;DHT22;38449;52.696;6.186;2023-07-08T07:15:36;25.80;95.60
52543;DHT22;38449;52.696;6.186;2023-07-08T07:18:02;25.60;95.60
52543;DHT22;38449;52.696;6.186;2023-07-08T07:20:28;25.60;95.70
52543;DHT22;38449;52.696;6.186;2023-07-08T07:22:56;25.40;96.30
52543;DHT22;38449;52.696;6.186;2023-07-08T07:25:26;25.40;96.00
52543;DHT22;38449;52.696;6.186;2023-07-08T07:27:52;25.40;96.00
52543;DHT22;38449;52.696;6.186;2023-07-08T07:30:19;25.40;96.10
52543;DHT22;38449;52.696;6.186;2023-07-08T07:32:48;25.40;96.00
52543;DHT22;38449;52.696;6.186;2023-07-08T07:35:16;25.50;96.30
52543;DHT22;38449;52.696;6.186;2023-07-08T07:37:44;25.70;96.20
52543;DHT22;38449;52.696;6.186;2023-07-08T07:40:12;25.70;96.10
52543;DHT22;38449;52.696;6.186;2023-07-08T07:42:42;25.80;96.20
52543;DHT22;38449;52.696;6.186;2023-07-08T07:45:10;25.90;96.10
52543;DHT22;38449;52.696;6.186;2023-07-08T07:47:36;25.80;96.10
52543;DHT22;38449;52.696;6.186;2023-07-08T07:50:05;25.90;96.10
52543;DHT22;38449;52.696;6.186;2023-07-08T07:52:32;25.90;96.10
52543;DHT22;38449;52.696;6.186;2023-07-08T07:54:59;25.90;96.20
52543;DHT22;38449;52.696;6.186;2023-07-08T07:57:25;26.10;96.20
52543;DHT22;38449;52.696;6.186;2023-07-08T07:59:52;26.10;96.10
52543;DHT22;38449;52.696;6.186;2023-07-08T08:02:19;26.20;96.10
52543;DHT22;38449;52.696;6.186;2023-07-08T08:04:45;26.30;96.20
52543;DHT22;38449;52.696;6.186;2023-07-08T08:07:12;26.60;96.10
52543;DHT22;38449;52.696;6.186;2023-07-08T08:09:38;26.60;96.00
52543;DHT22;38449;52.696;6.186;2023-07-08T08:12:08;26.70;96.00
52543;DHT22;38449;52.696;6.186;2023-07-08T08:14:35;26.80;95.90
52543;DHT22;38449;52.696;6.186;2023-07-08T08:17:02;26.80;96.00
52543;DHT22;38449;52.696;6.186;2023-07-08T08:19:29;26.60;95.70
52543;DHT22;38449;52.696;6.186;2023-07-08T08:21:55;26.60;95.70
52543;DHT22;38449;52.696;6.186;2023-07-08T08:24:22;26.60;95.70
52543;DHT22;38449;52.696;6.186;2023-07-08T08:26:48;26.70;95.60
52543;DHT22;38449;52.696;6.186;2023-07-08T08:29:14;26.70;95.70
52543;DHT22;38449;52.696;6.186;2023-07-08T08:31:41;26.60;95.90
52543;DHT22;38449;52.696;6.186;2023-07-08T08:34:07;26.90;96.10
52543;DHT22;38449;52.696;6.186;2023-07-08T08:36:33;26.80;96.00
52543;DHT22;38449;52.696;6.186;2023-07-08T08:38:59;27.00;96.00
52543;DHT22;38449;52.696;6.186;2023-07-08T08:41:37;27.00;95.90
52543;DHT22;38449;52.696;6.186;2023-07-08T08:44:04;27.10;95.90
52543;DHT22;38449;52.696;6.186;2023-07-08T08:46:49;27.10;95.80
52543;DHT22;38449;52.696;6.186;2023-07-08T08:51:48;27.00;95.90
52543;DHT22;38449;52.696;6.186;2023-07-08T08:54:15;27.10;96.00
52543;DHT22;38449;52.696;6.186;2023-07-08T08:57:05;27.10;95.80
52543;DHT22;38449;52.696;6.186;2023-07-08T08:59:44;27.10;96.00
52543;DHT22;38449;52.696;6.186;2023-07-08T09:02:23;27.10;96.00
52543;DHT22;38449;52.696;6.186;2023-07-08T09:04:51;27.20;96.00
52543;DHT22;38449;52.696;6.186;2023-07-08T09:07:19;27.40;96.00
52543;DHT22;38449;52.696;6.186;2023-07-08T09:09:53;27.40;95.70
52543;DHT22;38449;52.696;6.186;2023-07-08T09:12:25;27.50;95.80
52543;DHT22;38449;52.696;6.186;2023-07-08T09:14:53;27.60;95.70
52543;DHT22;38449;52.696;6.186;2023-07-08T09:17:27;27.70;95.50
52543;DHT22;38449;52.696;6.186;2023-07-08T09:23:03;27.70;95.60
52543;DHT22;38449;52.696;6.186;2023-07-08T09:25:41;27.90;95.70
52543;DHT22;38449;52.696;6.186;2023-07-08T09:28:13;27.80;95.30
52543;DHT22;38449;52.696;6.186;2023-07-08T09:30:40;27.80;95.50
52543;DHT22;38449;52.696;6.186;2023-07-08T09:33:08;27.90;95.60
52543;DHT22;38449;52.696;6.186;2023-07-08T09:35:47;28.00;95.40
52543;DHT22;38449;52.696;6.186;2023-07-08T09:38:17;28.00;95.50
52543;DHT22;38449;52.696;6.186;2023-07-08T09:40:51;28.20;95.60
52543;DHT22;38449;52.696;6.186;2023-07-08T09:43:28;28.30;95.30
52543;DHT22;38449;52.696;6.186;2023-07-08T09:46:00;28.30;94.80
52543;DHT22;38449;52.696;6.186;2023-07-08T09:48:28;28.20;95.00
52543;DHT22;38449;52.696;6.186;2023-07-08T09:50:57;28.30;95.00
52543;DHT22;38449;52.696;6.186;2023-07-08T09:53:24;28.20;95.10
52543;DHT22;38449;52.696;6.186;2023-07-08T09:55:53;28.40;95.10
52543;DHT22;38449;52.696;6.186;2023-07-08T09:58:35;28.50;95.30
52543;DHT22;38449;52.696;6.186;2023-07-08T10:01:15;28.60;95.10
52543;DHT22;38449;52.696;6.186;2023-07-08T10:03:43;28.50;95.00
52543;DHT22;38449;52.696;6.186;2023-07-08T10:06:27;28.60;95.10
52543;DHT22;38449;52.696;6.186;2023-07-08T10:08:55;28.80;95.40
52543;DHT22;38449;52.696;6.186;2023-07-08T10:11:29;28.70;94.90
52543;DHT22;38449;52.696;6.186;2023-07-08T10:14:09;28.90;95.20
52543;DHT22;38449;52.696;6.186;2023-07-08T10:16:37;29.00;95.00
52543;DHT22;38449;52.696;6.186;2023-07-08T10:19:13;29.20;95.20
52543;DHT22;38449;52.696;6.186;2023-07-08T10:24:30;28.90;94.90
52543;DHT22;38449;52.696;6.186;2023-07-08T10:30:11;29.20;95.00
52543;DHT22;38449;52.696;6.186;2023-07-08T10:35:30;29.40;94.40
52543;DHT22;38449;52.696;6.186;2023-07-08T10:40:53;29.70;94.70
52543;DHT22;38449;52.696;6.186;2023-07-08T10:46:26;29.80;94.60
52543;DHT22;38449;52.696;6.186;2023-07-08T10:49:25;30.00;94.50
52543;DHT22;38449;52.696;6.186;2023-07-08T10:52:20;30.00;94.50
52543;DHT22;38449;52.696;6.186;2023-07-08T11:01:02;29.80;94.70
52543;DHT22;38449;52.696;6.186;2023-07-08T11:06:15;30.00;94.50
52543;DHT22;38449;52.696;6.186;2023-07-08T11:08:56;29.90;94.20
52543;DHT22;38449;52.696;6.186;2023-07-08T11:11:36;30.00;94.10
52543;DHT22;38449;52.696;6.186;2023-07-08T11:14:21;30.20;94.30
52543;DHT22;38449;52.696;6.186;2023-07-08T11:17:09;30.40;94.10
52543;DHT22;38449;52.696;6.186;2023-07-08T11:19:43;30.50;94.60
52543;DHT22;38449;52.696;6.186;2023-07-08T11:22:11;30.40;94.10
52543;DHT22;38449;52.696;6.186;2023-07-08T11:24:46;30.40;94.00
52543;DHT22;38449;52.696;6.186;2023-07-08T11:27:32;30.50;93.80
52543;DHT22;38449;52.696;6.186;2023-07-08T11:32:39;30.70;93.50
52543;DHT22;38449;52.696;6.186;2023-07-08T11:35:16;30.70;93.60
52543;DHT22;38449;52.696;6.186;2023-07-08T11:37:44;30.80;93.50
52543;DHT22;38449;52.696;6.186;2023-07-08T11:42:49;31.00;92.70
52543;DHT22;38449;52.696;6.186;2023-07-08T11:47:49;30.90;92.60
52543;DHT22;38449;52.696;6.186;2023-07-08T11:50:29;31.00;92.70
52543;DHT22;38449;52.696;6.186;2023-07-08T11:53:02;31.00;92.60
52543;DHT22;38449;52.696;6.186;2023-07-08T11:55:47;31.10;92.50
52543;DHT22;38449;52.696;6.186;2023-07-08T11:58:24;31.20;92.70
52543;DHT22;38449;52.696;6.186;2023-07-08T12:03:39;31.30;92.80
52543;DHT22;38449;52.696;6.186;2023-07-08T12:08:55;31.30;92.70
52543;DHT22;38449;52.696;6.186;2023-07-08T12:11:28;31.50;92.80
52543;DHT22;38449;52.696;6.186;2023-07-08T12:13:59;31.70;92.60
52543;DHT22;38449;52.696;6.186;2023-07-08T12:16:28;31.70;92.00
52543;DHT22;38449;52.696;6.186;2023-07-08T12:18:55;31.60;92.00
52543;DHT22;38449;52.696;6.186;2023-07-08T12:21:26;31.60;91.60
52543;DHT22;38449;52.696;6.186;2023-07-08T12:23:54;31.70;91.90
52543;DHT22;38449;52.696;6.186;2023-07-08T12:26:21;31.70;91.70
52543;DHT22;38449;52.696;6.186;2023-07-08T12:28:48;31.80;92.00
52543;DHT22;38449;52.696;6.186;2023-07-08T12:31:19;31.90;91.80
52543;DHT22;38449;52.696;6.186;2023-07-08T12:33:46;31.90;91.00
52543;DHT22;38449;52.696;6.186;2023-07-08T12:36:19;31.90;90.70
52543;DHT22;38449;52.696;6.186;2023-07-08T12:38:47;31.90;90.90
52543;DHT22;38449;52.696;6.186;2023-07-08T12:41:21;31.90;91.00
52543;DHT22;38449;52.696;6.186;2023-07-08T12:43:49;32.00;90.60
52543;DHT22;38449;52.696;6.186;2023-07-08T12:46:17;32.00;90.90
52543;DHT22;38449;52.696;6.186;2023-07-08T12:48:44;32.10;91.00
52543;DHT22;38449;52.696;6.186;2023-07-08T12:51:14;32.00;90.80
52543;DHT22;38449;52.696;6.186;2023-07-08T12:53:42;32.00;91.10
52543;DHT22;38449;52.696;6.186;2023-07-08T12:56:09;32.00;90.90
52543;DHT22;38449;52.696;6.186;2023-07-08T12:58:41;32.10;91.10
52543;DHT22;38449;52.696;6.186;2023-07-08T13:01:08;32.20;91.00
52543;DHT22;38449;52.696;6.186;2023-07-08T13:03:45;32.20;90.90
52543;DHT22;38449;52.696;6.186;2023-07-08T13:06:16;32.20;90.70
52543;DHT22;38449;52.696;6.186;2023-07-08T13:08:44;32.30;90.90
52543;DHT22;38449;52.696;6.186;2023-07-08T13:11:14;32.30;90.90
52543;DHT22;38449;52.696;6.186;2023-07-08T13:13:49;32.30;90.60
52543;DHT22;38449;52.696;6.186;2023-07-08T13:16:17;32.40;90.30
52543;DHT22;38449;52.696;6.186;2023-07-08T13:18:43;32.50;90.20
52543;DHT22;38449;52.696;6.186;2023-07-08T13:21:13;32.50;90.60
52543;DHT22;38449;52.696;6.186;2023-07-08T13:23:40;32.50;90.80
52543;DHT22;38449;52.696;6.186;2023-07-08T13:26:21;32.50;90.50
52543;DHT22;38449;52.696;6.186;2023-07-08T13:28:48;32.60;90.30
52543;DHT22;38449;52.696;6.186;2023-07-08T13:31:20;32.80;90.60
52543;DHT22;38449;52.696;6.186;2023-07-08T13:33:49;32.80;89.80
52543;DHT22;38449;52.696;6.186;2023-07-08T13:36:18;32.90;89.40
52543;DHT22;38449;52.696;6.186;2023-07-08T13:38:45;32.90;90.10
52543;DHT22;38449;52.696;6.186;2023-07-08T13:41:20;33.00;90.10
52543;DHT22;38449;52.696;6.186;2023-07-08T13:43:48;33.00;90.40
52543;DHT22;38449;52.696;6.186;2023-07-08T13:46:45;32.90;89.80
52543;DHT22;38449;52.696;6.186;2023-07-08T13:52:19;32.80;87.80
52543;DHT22;38449;52.696;6.186;2023-07-08T13:55:17;32.70;88.80
52543;DHT22;38449;52.696;6.186;2023-07-08T13:57:44;32.80;88.10
52543;DHT22;38449;52.696;6.186;2023-07-08T14:00:12;32.90;88.60
52543;DHT22;38449;52.696;6.186;2023-07-08T14:02:41;32.90;87.80
52543;DHT22;38449;52.696;6.186;2023-07-08T14:05:11;32.90;87.70
52543;DHT22;38449;52.696;6.186;2023-07-08T14:07:38;33.00;87.70
52543;DHT22;38449;52.696;6.186;2023-07-08T14:10:12;33.00;88.20
52543;DHT22;38449;52.696;6.186;2023-07-08T14:12:39;32.90;87.80
52543;DHT22;38449;52.696;6.186;2023-07-08T14:15:05;32.90;87.50
52543;DHT22;38449;52.696;6.186;2023-07-08T14:17:33;32.90;87.60
52543;DHT22;38449;52.696;6.186;2023-07-08T14:20:00;33.00;87.90
52543;DHT22;38449;52.696;6.186;2023-07-08T14:22:30;33.10;87.90
52543;DHT22;38449;52.696;6.186;2023-07-08T14:25:04;33.10;87.00
52543;DHT22;38449;52.696;6.186;2023-07-08T14:27:32;32.90;86.70
52543;DHT22;38449;52.696;6.186;2023-07-08T14:29:58;33.10;87.20
52543;DHT22;38449;52.696;6.186;2023-07-08T14:32:28;33.00;87.00
52543;DHT22;38449;52.696;6.186;2023-07-08T14:35:12;33.10;87.40
52543;DHT22;38449;52.696;6.186;2023-07-08T14:37:40;33.10;87.70
52543;DHT22;38449;52.696;6.186;2023-07-08T14:42:47;33.20;85.40
52543;DHT22;38449;52.696;6.186;2023-07-08T14:45:14;33.20;87.00
52543;DHT22;38449;52.696;6.186;2023-07-08T14:47:40;33.40;87.20
52543;DHT22;38449;52.696;6.186;2023-07-08T14:50:12;33.30;86.40
52543;DHT22;38449;52.696;6.186;2023-07-08T14:52:39;33.30;86.70
52543;DHT22;38449;52.696;6.186;2023-07-08T14:55:05;33.20;86.20
52543;DHT22;38449;52.696;6.186;2023-07-08T14:57:38;33.30;85.80
52543;DHT22;38449;52.696;6.186;2023-07-08T15:00:08;33.30;85.30
52543;DHT22;38449;52.696;6.186;2023-07-08T15:02:40;33.20;86.00
52543;DHT22;38449;52.696;6.186;2023-07-08T15:07:42;33.30;84.70
52543;DHT22;38449;52.696;6.186;2023-07-08T15:10:09;33.30;85.00
52543;DHT22;38449;52.696;6.186;2023-07-08T15:12:35;33.30;84.90
52543;DHT22;38449;52.696;6.186;2023-07-08T15:15:02;33.30;85.00
52543;DHT22;38449;52.696;6.186;2023-07-08T15:17:28;33.40;84.90
52543;DHT22;38449;52.696;6.186;2023-07-08T15:19:54;33.40;83.50
52543;DHT22;38449;52.696;6.186;2023-07-08T15:22:20;33.50;83.50
52543;DHT22;38449;52.696;6.186;2023-07-08T15:24:47;33.60;83.80
52543;DHT22;38449;52.696;6.186;2023-07-08T15:27:13;33.60;83.50
52543;DHT22;38449;52.696;6.186;2023-07-08T15:29:40;33.70;84.40
52543;DHT22;38449;52.696;6.186;2023-07-08T15:32:13;33.70;83.40
52543;DHT22;38449;52.696;6.186;2023-07-08T15:34:45;33.60;83.40
52543;DHT22;38449;52.696;6.186;2023-07-08T15:37:12;33.60;83.30
52543;DHT22;38449;52.696;6.186;2023-07-08T15:39:38;33.70;83.30
52543;DHT22;38449;52.696;6.186;2023-07-08T15:42:07;33.60;82.70
52543;DHT22;38449;52.696;6.186;2023-07-08T15:44:35;33.60;82.20
52543;DHT22;38449;52.696;6.186;2023-07-08T15:47:01;33.50;81.70
52543;DHT22;38449;52.696;6.186;2023-07-08T15:49:28;33.60;82.50
52543;DHT22;38449;52.696;6.186;2023-07-08T15:51:56;33.60;82.50
52543;DHT22;38449;52.696;6.186;2023-07-08T15:54:23;33.80;82.40
52543;DHT22;38449;52.696;6.186;2023-07-08T15:56:51;33.80;82.00
52543;DHT22;38449;52.696;6.186;2023-07-08T15:59:21;33.80;82.00
52543;DHT22;38449;52.696;6.186;2023-07-08T16:01:49;33.70;81.60
52543;DHT22;38449;52.696;6.186;2023-07-08T16:04:31;33.80;82.50
52543;DHT22;38449;52.696;6.186;2023-07-08T16:06:58;33.70;81.60
52543;DHT22;38449;52.696;6.186;2023-07-08T16:09:25;33.70;82.20
52543;DHT22;38449;52.696;6.186;2023-07-08T16:11:51;33.70;81.90
52543;DHT22;38449;52.696;6.186;2023-07-08T16:14:18;33.70;81.90
52543;DHT22;38449;52.696;6.186;2023-07-08T16:16:45;33.70;81.90
52543;DHT22;38449;52.696;6.186;2023-07-08T16:19:13;33.50;82.10
52543;DHT22;38449;52.696;6.186;2023-07-08T16:21:40;33.60;82.40
52543;DHT22;38449;52.696;6.186;2023-07-08T16:24:06;33.60;81.90
52543;DHT22;38449;52.696;6.186;2023-07-08T16:26:33;33.60;82.50
52543;DHT22;38449;52.696;6.186;2023-07-08T16:29:00;33.70;82.80
52543;DHT22;38449;52.696;6.186;2023-07-08T16:31:28;33.70;82.50
52543;DHT22;38449;52.696;6.186;2023-07-08T16:33:54;33.70;82.70
52543;DHT22;38449;52.696;6.186;2023-07-08T16:36:23;33.70;83.00
52543;DHT22;38449;52.696;6.186;2023-07-08T16:38:50;33.70;82.90
52543;DHT22;38449;52.696;6.186;2023-07-08T16:41:18;33.70;82.90
52543;DHT22;38449;52.696;6.186;2023-07-08T16:43:45;33.70;82.20